Time;durP1;ratioP1;P1;durP2;ratioP2;P2;SDS_P1;SDS_P2;PMS_P1;PMS_P2;Temp;Humidity;BMP_temperature;BMP_pressure;BME280_temperature;BME280_humidity;BME280_pressure;Samples;Min_cycle;Max_cycle;Signal;HPM_P1;HPM_P2
2022/05/13 00:00:44;;;;;;;;;2.67;2.67;;;;;22.10;47.01;98573.91;4863129;28;104939;-81
2022/05/13 00:03:11;;;;;;;;;2.67;1.67;;;;;22.10;46.98;98563.72;4850820;28;111459;-82
2022/05/13 00:05:38;;;;;;;;;1.67;1.67;;;;;22.08;47.18;98563.16;4833103;28;102579;-82
2022/05/13 00:08:06;;;;;;;;;3.00;3.00;;;;;22.08;47.17;98573.34;4841242;28;102433;-82
2022/05/13 00:10:33;;;;;;;;;2.33;2.00;;;;;22.06;47.46;98570.88;4843524;28;102495;-82
2022/05/13 00:13:00;;;;;;;;;2.00;2.00;;;;;22.06;47.07;98564.56;4860510;28;104746;-82
2022/05/13 00:15:29;;;;;;;;;2.00;1.67;;;;;22.06;47.53;98557.13;4840555;28;102690;-82
2022/05/13 00:17:56;;;;;;;;;3.67;2.67;;;;;22.05;47.28;98555.47;4851709;28;103884;-82
2022/05/13 00:20:24;;;;;;;;;0.67;0.67;;;;;22.05;47.30;98566.47;4864260;28;102418;-81
2022/05/13 00:22:53;;;;;;;;;2.33;2.00;;;;;22.05;47.04;98560.97;4852908;28;104747;-82
2022/05/13 00:25:22;;;;;;;;;2.67;2.33;;;;;22.04;47.10;98556.56;4856162;28;103673;-82
2022/05/13 00:27:49;;;;;;;;;2.33;2.33;;;;;22.04;46.97;98551.06;4840879;28;102787;-82
2022/05/13 00:30:17;;;;;;;;;3.33;3.00;;;;;22.05;47.05;98560.97;4860104;28;102539;-82
2022/05/13 00:32:44;;;;;;;;;2.33;2.33;;;;;22.08;46.57;98563.16;4858256;28;104132;-82
2022/05/13 00:35:17;;;;;;;;;3.00;3.00;;;;;22.06;46.95;98551.63;4848295;28;102456;-82
2022/05/13 00:37:45;;;;;;;;;1.67;1.67;;;;;22.06;47.13;98557.13;4814776;28;103298;-82
2022/05/13 00:40:12;;;;;;;;;3.00;3.00;;;;;22.04;46.83;98559.31;4823139;28;102189;-82
2022/05/13 00:42:40;;;;;;;;;2.00;2.00;;;;;22.04;46.91;98562.06;4826335;28;103680;-82
2022/05/13 00:45:08;;;;;;;;;1.00;1.00;;;;;22.05;47.07;98566.47;4812897;28;102400;-82
2022/05/13 00:47:35;;;;;;;;;1.67;1.67;;;;;22.04;46.72;98556.56;4821328;28;103641;-82
2022/05/13 00:50:03;;;;;;;;;2.67;2.67;;;;;22.03;46.92;98546.63;4822341;28;102201;-82
2022/05/13 00:52:30;;;;;;;;;2.67;2.67;;;;;22.05;46.85;98560.97;4840905;28;104092;-82
2022/05/13 00:54:57;;;;;;;;;2.67;2.00;;;;;22.02;46.50;98553.25;4826371;28;102612;-82
2022/05/13 00:57:24;;;;;;;;;4.00;2.67;;;;;22.04;46.85;98566.75;4777752;29;102650;-82
2022/05/13 00:59:51;;;;;;;;;2.00;2.00;;;;;22.05;46.70;98552.72;4827218;28;102278;-82
2022/05/13 01:02:18;;;;;;;;;2.00;2.00;;;;;22.04;46.34;98545.53;4816339;28;103969;-82
2022/05/13 01:04:46;;;;;;;;;1.67;1.67;;;;;22.04;46.17;98537.28;4821718;28;107299;-82
2022/05/13 01:07:17;;;;;;;;;2.33;2.33;;;;;22.04;46.42;98531.78;4801877;28;104926;-82
2022/05/13 01:09:46;;;;;;;;;3.00;2.67;;;;;22.03;46.79;98534.78;4802772;28;103785;-82
2022/05/13 01:12:15;;;;;;;;;2.33;2.33;;;;;22.03;47.03;98523.78;4790772;29;108994;-82
2022/05/13 01:14:50;;;;;;;;;0.67;0.67;;;;;22.03;46.49;98534.78;4811818;28;102157;-82
2022/05/13 01:20:22;;;;;;;;;2.00;2.00;;;;;22.04;46.49;98526.28;4810424;28;108706;-81
2022/05/13 01:22:51;;;;;;;;;2.33;1.67;;;;;22.03;46.62;98546.63;4816356;28;107883;-82
2022/05/13 01:25:20;;;;;;;;;2.00;2.00;;;;;22.02;46.58;98544.97;4813189;28;102252;-81
2022/05/13 01:27:48;;;;;;;;;1.67;1.67;;;;;22.01;46.67;98540.59;4813909;28;103004;-81
2022/05/13 01:30:25;;;;;;;;;2.00;1.67;;;;;22.01;46.32;98548.03;4828342;28;102204;-82
2022/05/13 01:32:53;;;;;;;;;2.00;1.67;;;;;22.01;46.39;98551.63;4817566;28;108978;-82
2022/05/13 01:35:20;;;;;;;;;2.67;1.67;;;;;22.00;46.66;98546.38;4818343;28;102234;-82
2022/05/13 01:37:48;;;;;;;;;1.33;1.00;;;;;21.99;46.62;98534.53;4854922;28;102572;-80
2022/05/13 01:40:15;;;;;;;;;1.67;1.67;;;;;21.99;46.34;98523.50;4854219;28;102460;-82
2022/05/13 01:42:42;;;;;;;;;2.33;2.33;;;;;22.00;46.20;98518.84;4855835;28;110222;-82
2022/05/13 01:45:10;;;;;;;;;1.67;1.33;;;;;21.99;46.82;98517.19;4832889;28;104149;-82
2022/05/13 01:47:38;;;;;;;;;1.33;1.00;;;;;21.99;46.53;98530.94;4830464;28;102846;-82
2022/05/13 01:50:06;;;;;;;;;2.67;2.67;;;;;21.98;46.21;98532.88;4849799;28;102788;-82
2022/05/13 01:52:33;;;;;;;;;1.67;1.67;;;;;21.97;46.40;98544.19;4852109;28;103421;-82
2022/05/13 01:55:01;;;;;;;;;1.67;1.67;;;;;21.96;46.66;98546.09;4855796;28;102697;-82
2022/05/13 01:57:28;;;;;;;;;1.67;1.67;;;;;21.96;46.49;98534.25;4858184;28;103176;-82
2022/05/13 01:59:55;;;;;;;;;3.33;2.67;;;;;21.95;46.49;98525.16;4856332;28;102306;-82
2022/05/13 02:02:22;;;;;;;;;3.00;2.33;;;;;21.95;46.34;98519.66;4854714;28;105005;-82
2022/05/13 02:04:49;;;;;;;;;2.67;2.67;;;;;21.96;46.68;98520.50;4858008;28;102407;-81
2022/05/13 02:07:16;;;;;;;;;2.67;2.67;;;;;21.95;46.35;98511.41;4861376;28;102844;-82
2022/05/13 02:09:44;;;;;;;;;2.00;2.00;;;;;21.92;46.68;98514.69;4853318;28;102194;-82
2022/05/13 02:12:11;;;;;;;;;1.67;1.67;;;;;21.94;46.24;98517.19;4854038;28;104108;-82
2022/05/13 02:14:38;;;;;;;;;3.00;2.00;;;;;21.92;46.62;98520.19;4847181;28;103705;-82
2022/05/13 02:17:05;;;;;;;;;1.67;1.67;;;;;21.93;46.21;98523.81;4854212;28;102228;-82
2022/05/13 02:19:33;;;;;;;;;2.00;2.00;;;;;21.94;46.40;98529.03;4853910;28;102147;-82
2022/05/13 02:22:00;;;;;;;;;4.00;2.33;;;;;21.93;46.62;98530.13;4852794;28;104015;-82
2022/05/13 02:24:27;;;;;;;;;3.00;3.00;;;;;21.93;46.24;98526.56;4856293;28;102334;-82
2022/05/13 02:26:54;;;;;;;;;1.67;1.67;;;;;21.90;46.47;98525.13;4857337;28;102099;-82
2022/05/13 02:29:21;;;;;;;;;2.67;2.33;;;;;21.91;46.29;98526.81;4860096;28;102307;-82
2022/05/13 02:31:48;;;;;;;;;1.67;1.67;;;;;21.91;46.19;98524.03;4853403;28;104005;-80
2022/05/13 02:34:15;;;;;;;;;2.33;2.33;;;;;21.90;46.29;98522.38;4862051;28;102151;-82
2022/05/13 02:36:43;;;;;;;;;1.67;1.67;;;;;21.90;46.31;98524.31;4853465;28;110235;-82
2022/05/13 02:39:10;;;;;;;;;1.67;1.33;;;;;21.88;46.14;98521.84;4853874;28;102641;-82
2022/05/13 02:41:37;;;;;;;;;2.33;2.00;;;;;21.90;46.64;98516.06;4857104;28;104400;-82
2022/05/13 02:44:04;;;;;;;;;1.33;1.33;;;;;21.90;46.07;98519.63;4853413;28;102062;-82
2022/05/13 02:46:39;;;;;;;;;1.67;1.67;;;;;21.88;46.02;98519.09;4850215;28;103011;-82
2022/05/13 02:49:06;;;;;;;;;3.67;3.00;;;;;21.88;46.38;98516.34;4851988;28;102405;-82
2022/05/13 02:51:33;;;;;;;;;1.67;1.33;;;;;21.88;46.44;98521.84;4857404;28;104136;-82
2022/05/13 02:54:00;;;;;;;;;1.33;1.00;;;;;21.85;46.39;98522.38;4854878;28;102280;-82
2022/05/13 02:56:27;;;;;;;;;3.00;2.00;;;;;21.87;46.18;98519.38;4855655;28;102522;-82
2022/05/13 02:58:55;;;;;;;;;1.67;1.67;;;;;21.86;46.18;98513.03;4858426;28;102323;-81
2022/05/13 03:01:22;;;;;;;;;2.67;1.67;;;;;21.86;46.51;98509.44;4849693;28;104187;-82
2022/05/13 03:03:49;;;;;;;;;3.00;2.67;;;;;21.87;46.25;98514.69;4858050;28;102621;-82
2022/05/13 03:06:18;;;;;;;;;2.33;2.00;;;;;21.88;46.29;98518.28;4862019;28;102458;-82
2022/05/13 03:08:45;;;;;;;;;2.33;2.00;;;;;21.86;46.07;98515.78;4853195;28;102352;-82
2022/05/13 03:11:13;;;;;;;;;1.67;1.67;;;;;21.84;46.60;98515.22;4852870;28;110201;-82
2022/05/13 03:13:40;;;;;;;;;1.67;1.67;;;;;21.86;46.46;98518.53;4857952;28;102149;-82
2022/05/13 03:16:18;;;;;;;;;1.67;1.67;;;;;21.85;45.94;98519.63;4839366;28;102217;-82
2022/05/13 03:18:46;;;;;;;;;2.67;1.67;;;;;21.80;45.27;98522.38;4855286;28;102406;-82
2022/05/13 03:21:13;;;;;;;;;3.67;3.67;;;;;21.76;45.03;98513.03;4855678;28;110749;-82
2022/05/13 03:23:43;;;;;;;;;3.33;3.33;;;;;21.77;46.00;98514.69;4855348;28;103373;-82
2022/05/13 03:26:11;;;;;;;;;2.67;2.67;;;;;21.77;46.43;98525.69;4857497;28;102077;-82
2022/05/13 03:28:39;;;;;;;;;3.67;3.33;;;;;21.77;45.91;98522.94;4857597;28;102403;-82
2022/05/13 03:31:06;;;;;;;;;2.67;2.67;;;;;21.77;46.06;98539.47;4857760;28;104254;-82
2022/05/13 03:33:33;;;;;;;;;3.67;1.67;;;;;21.78;46.64;98541.13;4838192;28;103280;-82
2022/05/13 03:36:00;;;;;;;;;2.67;2.67;;;;;21.78;46.36;98546.63;4853324;28;102188;-82
2022/05/13 03:38:27;;;;;;;;;2.00;2.00;;;;;21.78;46.35;98533.69;4855597;28;102664;-82
2022/05/13 03:40:54;;;;;;;;;2.00;2.00;;;;;21.79;46.31;98529.81;4832520;28;104096;-82
2022/05/13 03:43:22;;;;;;;;;1.67;1.67;;;;;21.79;46.21;98545.53;4855954;28;102513;-81
2022/05/13 03:45:49;;;;;;;;;3.67;3.00;;;;;21.79;45.83;98540.81;4837811;28;102134;-79
2022/05/13 03:48:16;;;;;;;;;3.33;3.33;;;;;21.79;46.30;98521.56;4838701;28;102344;-82
2022/05/13 03:50:44;;;;;;;;;3.67;2.67;;;;;21.79;45.95;98526.25;4856976;28;104112;-82
2022/05/13 03:53:11;;;;;;;;;1.67;1.67;;;;;21.78;46.37;98517.16;4838057;28;102684;-82
2022/05/13 03:55:38;;;;;;;;;3.00;2.00;;;;;21.79;46.12;98518.00;4849321;28;102511;-82
2022/05/13 03:58:05;;;;;;;;;2.67;2.67;;;;;21.77;46.33;98521.03;4859260;28;102233;-82
2022/05/13 04:00:33;;;;;;;;;3.67;2.67;;;;;21.77;45.83;98525.69;4853905;28;104250;-82
2022/05/13 04:03:00;;;;;;;;;0.67;0.67;;;;;21.78;45.79;98521.84;4817193;28;102261;-82
2022/05/13 04:11:00;;;;;;;;;2.67;2.67;;;;;21.76;45.90;98513.03;4853663;28;108872;-81
2022/05/13 04:16:13;;;;;;;;;3.00;2.67;;;;;21.77;46.05;98520.19;4854465;28;102509;-82
2022/05/13 04:18:44;;;;;;;;;2.33;2.33;;;;;21.77;46.00;98522.94;4857688;28;103660;-82
2022/05/13 04:21:14;;;;;;;;;2.00;2.00;;;;;21.77;45.87;98514.69;4853670;28;104093;-80
2022/05/13 04:23:42;;;;;;;;;2.67;2.67;;;;;21.77;46.24;98522.94;4856073;28;102639;-79
2022/05/13 04:26:13;;;;;;;;;2.00;2.00;;;;;21.76;45.69;98524.03;4861878;28;102089;-79
2022/05/13 04:28:41;;;;;;;;;2.67;2.67;;;;;21.77;45.99;98520.19;4864612;28;102739;-79
2022/05/13 04:31:09;;;;;;;;;2.67;2.67;;;;;21.76;46.07;98540.56;4852401;28;104182;-79
2022/05/13 04:33:36;;;;;;;;;2.33;2.33;;;;;21.75;46.05;98539.72;4860637;28;102087;-79
2022/05/13 04:36:04;;;;;;;;;2.00;1.67;;;;;21.77;46.19;98542.22;4858365;28;102069;-79
2022/05/13 04:38:31;;;;;;;;;2.67;2.67;;;;;21.76;46.30;98546.06;4859717;28;102411;-79
2022/05/13 04:42:49;;;;;;;;;2.00;2.00;;;;;21.76;45.70;98557.06;4858557;28;104085;-79
2022/05/13 04:43:49;;;;;;;;;3.33;3.33;;;;;21.76;45.91;98555.16;4860932;28;102312;-80
2022/05/13 04:46:17;;;;;;;;;2.67;2.00;;;;;21.75;45.79;98549.91;4857948;28;104937;-81
2022/05/13 04:48:47;;;;;;;;;2.33;1.67;;;;;21.75;45.74;98549.91;4842346;28;102213;-81
2022/05/13 04:51:14;;;;;;;;;2.33;2.33;;;;;21.75;45.93;98547.16;4842248;28;108830;-81
2022/05/13 04:53:41;;;;;;;;;2.33;2.33;;;;;21.76;45.61;98548.81;4858745;28;102240;-81
2022/05/13 04:56:08;;;;;;;;;2.33;2.33;;;;;21.74;45.92;98562.03;4861022;28;103314;-81
2022/05/13 04:58:35;;;;;;;;;1.67;1.67;;;;;21.75;45.66;98561.75;4840337;28;102620;-81
2022/05/13 05:01:03;;;;;;;;;3.67;2.67;;;;;21.74;46.27;98545.53;4854189;28;104082;-81
2022/05/13 05:03:43;;;;;;;;;2.67;2.67;;;;;21.74;45.76;98548.28;4858783;28;102102;-83
2022/05/13 05:06:10;;;;;;;;;1.33;1.00;;;;;21.75;45.83;98555.41;4842285;28;102005;-81
2022/05/13 05:08:38;;;;;;;;;2.00;1.67;;;;;21.74;45.65;98551.84;4859792;28;102447;-81
2022/05/13 05:11:05;;;;;;;;;2.67;2.67;;;;;21.74;46.23;98545.53;4854890;28;104172;-81
2022/05/13 05:13:34;;;;;;;;;2.33;2.33;;;;;21.73;46.40;98538.34;4857582;28;102827;-81
2022/05/13 05:16:02;;;;;;;;;2.67;2.67;;;;;21.72;46.49;98547.72;4859878;28;102771;-81
2022/05/13 05:18:29;;;;;;;;;1.67;1.67;;;;;21.73;46.28;98546.63;4856936;28;105526;-80
2022/05/13 05:20:56;;;;;;;;;2.67;2.67;;;;;21.70;46.24;98545.22;4860469;28;104161;-80
2022/05/13 05:23:25;;;;;;;;;3.67;3.67;;;;;21.73;46.25;98547.44;4855683;28;103200;-81
2022/05/13 05:25:52;;;;;;;;;2.67;2.67;;;;;21.70;45.89;98539.72;4859201;28;102142;-80
2022/05/13 05:28:26;;;;;;;;;3.33;3.00;;;;;21.74;46.18;98548.28;4860508;28;102579;-81
2022/05/13 05:30:53;;;;;;;;;4.00;3.00;;;;;21.73;45.91;98541.13;4856307;28;104869;-80
2022/05/13 05:33:20;;;;;;;;;3.00;2.67;;;;;21.72;46.27;98543.03;4856506;28;102421;-87
2022/05/13 05:35:47;;;;;;;;;2.00;1.67;;;;;21.73;45.79;98533.69;4855386;28;103284;-79
2022/05/13 05:38:15;;;;;;;;;3.00;2.67;;;;;21.74;45.91;98534.50;4854864;28;102555;-78
2022/05/13 05:40:43;;;;;;;;;2.67;2.67;;;;;21.71;46.57;98532.28;4857959;28;104111;-79
2022/05/13 05:43:12;;;;;;;;;3.00;3.00;;;;;21.70;46.73;98533.41;4853509;28;103755;-79
2022/05/13 05:45:40;;;;;;;;;3.00;2.67;;;;;21.71;46.83;98546.88;4844784;28;102183;-78
2022/05/13 05:48:21;;;;;;;;;3.00;3.00;;;;;21.70;46.85;98547.19;4855825;28;102646;-79
2022/05/13 05:50:54;;;;;;;;;3.00;3.00;;;;;21.70;46.85;98550.72;4853093;28;109159;-77
2022/05/13 05:58:58;;;;;;;;;3.00;3.00;;;;;21.70;47.15;98547.19;4858675;28;102355;-79
2022/05/13 06:01:25;;;;;;;;;2.67;2.33;;;;;21.72;47.44;98553.22;4854523;28;104093;-78
2022/05/13 06:03:52;;;;;;;;;2.33;1.67;;;;;21.72;47.27;98547.72;4853815;28;102475;-78
2022/05/13 06:06:19;;;;;;;;;3.67;3.67;;;;;21.72;47.26;98558.72;4837323;28;102445;-77
2022/05/13 06:08:46;;;;;;;;;2.33;1.67;;;;;21.72;47.18;98550.47;4857609;28;102447;-79
2022/05/13 06:11:13;;;;;;;;;2.00;2.00;;;;;21.72;47.76;98544.97;4854224;28;104114;-79
2022/05/13 06:13:40;;;;;;;;;3.00;2.00;;;;;21.70;47.31;98544.41;4856947;28;102214;-78
2022/05/13 06:16:07;;;;;;;;;4.00;2.33;;;;;21.71;47.31;98546.06;4855239;28;102511;-79
2022/05/13 06:18:35;;;;;;;;;6.00;3.00;;;;;21.71;47.54;98538.63;4859678;28;102703;-78
2022/05/13 06:21:03;;;;;;;;;3.00;2.33;;;;;21.70;47.95;98536.97;4848507;28;103512;-78
2022/05/13 06:23:30;;;;;;;;;3.33;2.67;;;;;21.71;47.34;98543.28;4854509;28;103113;-79
2022/05/13 06:25:57;;;;;;;;;3.67;2.67;;;;;21.72;47.41;98544.97;4852926;28;103934;-78
2022/05/13 06:28:25;;;;;;;;;2.67;2.67;;;;;21.72;47.58;98545.78;4853299;28;103686;-79
2022/05/13 06:30:52;;;;;;;;;2.00;2.00;;;;;21.72;47.12;98547.72;4853816;28;104017;-78
2022/05/13 06:33:19;;;;;;;;;1.00;1.00;;;;;21.73;48.03;98557.63;4860573;28;103223;-78
2022/05/13 06:35:46;;;;;;;;;3.00;3.00;;;;;21.74;47.58;98551.03;4852369;28;102394;-78
2022/05/13 06:38:20;;;;;;;;;2.33;2.33;;;;;21.75;47.50;98538.88;4854569;28;102524;-79
2022/05/13 06:40:48;;;;;;;;;2.67;2.67;;;;;21.74;47.33;98543.59;4858737;28;109040;-79
2022/05/13 06:43:15;;;;;;;;;2.33;2.33;;;;;21.75;47.48;98549.91;4840627;28;103337;-79
2022/05/13 06:45:43;;;;;;;;;2.67;2.67;;;;;21.76;47.56;98546.88;4851059;28;102499;-79
2022/05/13 06:48:10;;;;;;;;;4.00;3.00;;;;;21.75;47.24;98549.91;4836588;28;103987;-79
2022/05/13 06:50:37;;;;;;;;;2.33;2.33;;;;;21.75;47.33;98549.91;4833082;28;104345;-78
2022/05/13 06:53:05;;;;;;;;;4.67;2.67;;;;;21.75;47.85;98547.97;4847293;28;102692;-79
2022/05/13 06:55:32;;;;;;;;;2.00;2.00;;;;;21.76;47.88;98549.63;4838805;28;102617;-79
2022/05/13 06:58:00;;;;;;;;;2.33;2.33;;;;;21.75;48.13;98538.88;4853589;28;104066;-78
2022/05/13 07:00:28;;;;;;;;;2.67;1.67;;;;;21.76;48.10;98540.56;4854292;28;104122;-78
2022/05/13 07:02:55;;;;;;;;;3.00;3.00;;;;;21.72;47.56;98536.69;4854052;28;102496;-78
2022/05/13 07:05:22;;;;;;;;;4.00;3.00;;;;;21.77;48.07;98539.47;4854142;28;102522;-78
2022/05/13 07:07:49;;;;;;;;;2.00;2.00;;;;;21.78;47.34;98533.69;4862472;28;102372;-79
2022/05/13 07:10:16;;;;;;;;;2.00;2.00;;;;;21.78;47.85;98544.69;4837298;28;110075;-79
2022/05/13 07:12:44;;;;;;;;;3.67;3.00;;;;;21.79;47.59;98529.81;4840871;28;102253;-79
2022/05/13 07:15:13;;;;;;;;;1.67;1.67;;;;;21.79;47.91;98523.50;4855250;28;102034;-78
2022/05/13 07:17:40;;;;;;;;;3.00;2.00;;;;;21.79;47.72;98538.06;4850930;28;102638;-78
2022/05/13 07:20:08;;;;;;;;;3.00;2.00;;;;;21.79;47.61;98524.31;4857311;28;104155;-78
2022/05/13 07:22:36;;;;;;;;;3.00;2.00;;;;;21.79;48.07;98524.31;4843963;28;102511;-78
2022/05/13 07:25:04;;;;;;;;;2.00;1.67;;;;;21.80;47.76;98519.63;4863831;28;102679;-78
2022/05/13 07:27:31;;;;;;;;;3.33;3.33;;;;;21.81;47.64;98515.78;4859846;28;102341;-79
2022/05/13 07:29:58;;;;;;;;;2.00;1.67;;;;;21.82;48.12;98525.69;4840121;28;104435;-78
2022/05/13 07:32:28;;;;;;;;;1.67;1.67;;;;;21.81;47.75;98516.63;4857875;28;102189;-78
2022/05/13 07:34:55;;;;;;;;;2.00;1.67;;;;;21.82;48.21;98514.69;4859034;28;102160;-78
2022/05/13 07:37:22;;;;;;;;;1.67;1.67;;;;;21.83;47.96;98513.59;4857006;28;102173;-78
2022/05/13 07:42:35;;;;;;;;;2.00;1.67;;;;;21.85;47.76;98516.06;4856778;28;102537;-78
2022/05/13 07:45:03;;;;;;;;;2.67;2.00;;;;;21.85;47.41;98516.88;4863806;28;102339;-78
2022/05/13 07:47:30;;;;;;;;;2.00;2.00;;;;;21.85;47.67;98519.63;4861394;28;102209;-78
2022/05/13 07:49:57;;;;;;;;;1.67;1.67;;;;;21.87;47.97;98527.63;4861568;28;104102;-78
2022/05/13 07:52:26;;;;;;;;;2.33;2.33;;;;;21.86;47.58;98520.47;4860512;28;102176;-78
2022/05/13 07:54:53;;;;;;;;;3.67;3.00;;;;;21.86;47.58;98526.78;4861322;28;102127;-78
2022/05/13 07:57:20;;;;;;;;;2.00;2.00;;;;;21.87;47.56;98531.22;4863671;28;102174;-79
2022/05/13 08:02:32;;;;;;;;;2.33;2.33;;;;;21.87;47.82;98531.22;4858810;28;102178;-79
2022/05/13 08:05:00;;;;;;;;;2.67;2.67;;;;;21.89;47.82;98525.41;4860386;28;102515;-79
2022/05/13 08:07:27;;;;;;;;;1.67;1.67;;;;;21.89;47.67;98529.00;4861681;28;102632;-78
2022/05/13 08:09:54;;;;;;;;;3.00;2.00;;;;;21.89;47.38;98526.25;4860791;28;104072;-78
2022/05/13 08:12:21;;;;;;;;;2.67;2.33;;;;;21.90;47.63;98519.63;4865080;28;103814;-78
2022/05/13 08:14:48;;;;;;;;;2.00;2.00;;;;;21.91;47.70;98521.28;4858895;28;102165;-79
2022/05/13 08:17:15;;;;;;;;;3.00;2.33;;;;;21.92;47.59;98522.94;4856188;28;102232;-78
2022/05/13 08:19:42;;;;;;;;;1.67;1.67;;;;;21.91;47.49;98521.28;4858614;28;104361;-78
2022/05/13 08:22:09;;;;;;;;;2.00;2.00;;;;;21.91;47.53;98517.72;4860113;28;102005;-78
2022/05/13 08:24:36;;;;;;;;;2.67;2.67;;;;;21.92;47.94;98519.38;4859322;28;102539;-78
2022/05/13 08:27:04;;;;;;;;;1.67;1.67;;;;;21.92;47.52;98517.44;4857445;28;102413;-79
2022/05/13 08:29:31;;;;;;;;;1.33;1.33;;;;;21.89;47.99;98506.13;4861634;28;104097;-78
2022/05/13 08:31:58;;;;;;;;;3.00;2.00;;;;;21.93;47.48;98519.09;4864441;28;102039;-78
2022/05/13 08:34:25;;;;;;;;;2.00;2.00;;;;;21.95;47.66;98516.09;4845147;28;102448;-78
2022/05/13 08:36:53;;;;;;;;;3.00;3.00;;;;;21.95;47.77;98525.16;4862984;28;102699;-78
2022/05/13 08:39:20;;;;;;;;;2.33;2.33;;;;;21.96;47.70;98518.56;4861788;28;104180;-78
2022/05/13 08:42:22;;;;;;;;;1.33;0.00;;;;;21.97;47.43;98520.22;4856273;28;102342;-78
2022/05/13 08:44:50;;;;;;;;;2.00;2.00;;;;;21.97;47.27;98513.91;4849189;28;102178;-79
2022/05/13 08:47:21;;;;;;;;;1.67;1.67;;;;;21.97;47.45;98520.22;4845976;28;103131;-79
2022/05/13 08:49:56;;;;;;;;;3.00;2.00;;;;;21.99;47.67;98514.44;4853290;28;108573;-79
2022/05/13 08:55:26;;;;;;;;;2.00;2.00;;;;;21.99;47.69;98515.25;4867387;28;102789;-79
2022/05/13 08:57:53;;;;;;;;;2.00;2.00;;;;;22.00;47.49;98516.91;4857675;28;102486;-78
2022/05/13 09:00:47;;;;;;;;;1.67;1.67;;;;;22.00;47.44;98508.66;4831968;28;104035;-78
2022/05/13 09:03:17;;;;;;;;;2.67;1.67;;;;;22.01;47.48;98504.81;4839124;28;102204;-78
2022/05/13 09:05:48;;;;;;;;;2.00;2.00;;;;;22.02;47.62;98498.16;4860293;28;101980;-78
2022/05/13 09:08:15;;;;;;;;;0.67;0.67;;;;;22.02;47.49;98491.88;4828525;28;102288;-78
2022/05/13 09:11:11;;;;;;;;;1.67;1.67;;;;;22.04;46.99;98490.47;4864369;28;104058;-78
2022/05/13 09:13:47;;;;;;;;;1.67;1.67;;;;;22.02;47.54;98487.16;4824943;28;102032;-79
2022/05/13 09:16:14;;;;;;;;;3.00;2.00;;;;;22.03;47.10;98483.31;4840769;28;102390;-78
2022/05/13 09:18:50;;;;;;;;;2.00;2.00;;;;;22.02;47.21;98481.66;4847892;28;110479;-78
2022/05/13 09:21:19;;;;;;;;;1.00;0.67;;;;;22.05;47.44;98485.78;4861152;28;111852;-78
2022/05/13 09:23:46;;;;;;;;;2.67;2.00;;;;;22.04;47.11;98487.72;4861378;28;102328;-78
2022/05/13 09:26:16;;;;;;;;;0.67;0.67;;;;;22.05;47.28;98483.88;4848186;28;102096;-78
2022/05/13 09:29:07;;;;;;;;;0.67;0.67;;;;;22.05;47.37;98489.38;4857992;28;102619;-78
2022/05/13 09:31:43;;;;;;;;;1.67;1.67;;;;;22.05;47.30;98483.88;4843112;28;108605;-78
2022/05/13 09:34:28;;;;;;;;;0.67;0.67;;;;;22.07;46.89;98476.13;4833617;28;102263;-78
2022/05/13 09:37:22;;;;;;;;;2.00;1.00;;;;;22.07;47.35;98473.38;4836189;28;102570;-77
2022/05/13 09:39:51;;;;;;;;;1.67;1.67;;;;;22.08;46.85;98475.03;4856401;28;103531;-78
2022/05/13 09:42:20;;;;;;;;;0.67;0.67;;;;;22.07;46.90;98470.63;4837182;28;110775;-79
2022/05/13 09:44:47;;;;;;;;;2.00;2.00;;;;;22.08;46.97;98466.78;4841604;28;102141;-78
2022/05/13 09:47:20;;;;;;;;;1.00;1.00;;;;;22.09;47.32;98462.09;4854612;28;102361;-79
2022/05/13 09:50:26;;;;;;;;;1.00;1.00;;;;;22.09;46.76;98460.16;4861334;28;102440;-79
2022/05/13 09:52:53;;;;;;;;;2.00;2.00;;;;;22.09;47.23;98454.66;4849169;28;108904;-77
2022/05/13 09:55:30;;;;;;;;;2.33;1.67;;;;;22.09;46.82;98445.56;4860383;28;102575;-78
2022/05/13 09:58:00;;;;;;;;;2.00;2.00;;;;;22.11;47.05;98446.13;4834187;28;105483;-78
2022/05/13 10:00:30;;;;;;;;;2.67;2.00;;;;;22.11;47.13;98440.63;4863094;28;103063;-78
2022/05/13 10:03:24;;;;;;;;;1.67;1.67;;;;;22.12;47.00;98436.75;4863550;28;104192;-78
2022/05/13 10:05:53;;;;;;;;;1.67;1.67;;;;;22.13;46.68;98430.97;4858542;28;102208;-78
2022/05/13 10:08:23;;;;;;;;;1.67;1.67;;;;;22.10;47.08;98428.78;4841531;28;102171;-78
2022/05/13 10:13:59;;;;;;;;;1.67;1.67;;;;;22.13;47.25;98425.47;4844112;28;108722;-78
2022/05/13 10:16:47;;;;;;;;;1.67;1.67;;;;;22.14;46.77;98416.09;4838761;28;102386;-78
2022/05/13 10:19:25;;;;;;;;;0.67;0.67;;;;;22.14;46.58;98410.59;4856000;28;102052;-78
2022/05/13 10:22:12;;;;;;;;;0.67;0.67;;;;;22.15;46.95;98414.16;4846218;28;102265;-78
2022/05/13 10:24:45;;;;;;;;;1.33;1.33;;;;;22.14;46.79;98402.31;4840906;28;108999;-78
2022/05/13 10:27:21;;;;;;;;;2.33;1.67;;;;;22.15;46.92;98406.72;4842785;28;110277;-79
2022/05/13 10:29:48;;;;;;;;;1.67;1.33;;;;;22.16;47.16;98405.59;4825972;28;102241;-78
2022/05/13 10:32:25;;;;;;;;;2.67;2.00;;;;;22.16;46.67;98397.34;4828398;28;102632;-78
2022/05/13 10:34:54;;;;;;;;;1.00;1.00;;;;;22.18;46.88;98389.63;4828434;28;109227;-78
2022/05/13 10:37:44;;;;;;;;;2.00;1.33;;;;;22.18;46.86;98388.81;4850483;28;101985;-78
2022/05/13 10:40:13;;;;;;;;;1.00;1.00;;;;;22.18;46.64;98388.81;4855097;28;102145;-78
2022/05/13 10:42:42;;;;;;;;;2.00;1.67;;;;;22.18;46.57;98386.88;4854505;28;102464;-78
2022/05/13 10:45:19;;;;;;;;;0.67;0.67;;;;;22.20;46.50;98386.59;4836540;28;104556;-78
2022/05/13 10:47:51;;;;;;;;;1.67;1.67;;;;;22.18;46.81;98384.13;4858695;28;102631;-78
2022/05/13 10:50:20;;;;;;;;;2.33;2.33;;;;;22.19;46.63;98391.28;4836416;28;111956;-79
2022/05/13 10:53:05;;;;;;;;;1.00;1.00;;;;;22.20;46.35;98381.06;4822387;28;102151;-78
2022/05/13 10:55:42;;;;;;;;;1.67;1.67;;;;;22.20;46.63;98381.91;4842718;28;108856;-78
2022/05/13 10:58:09;;;;;;;;;1.67;1.67;;;;;22.21;46.62;98377.22;4845389;28;102397;-78
2022/05/13 11:00:53;;;;;;;;;1.67;1.67;;;;;22.21;46.67;98367.03;4858550;28;102228;-78
2022/05/13 11:03:43;;;;;;;;;1.67;1.67;;;;;22.22;46.64;98371.44;4828537;28;102299;-79
2022/05/13 11:06:44;;;;;;;;;1.00;1.00;;;;;22.23;46.39;98378.59;4850067;28;109550;-78
2022/05/13 11:09:30;;;;;;;;;1.00;1.00;;;;;22.23;46.43;98364.84;4854943;28;102639;-78
2022/05/13 11:12:09;;;;;;;;;1.33;0.67;;;;;22.23;46.73;98370.34;4825563;28;102537;-78
2022/05/13 11:15:12;;;;;;;;;1.67;1.67;;;;;22.24;46.37;98365.66;4826177;28;102297;-78
2022/05/13 11:18:00;;;;;;;;;2.00;1.33;;;;;22.24;46.66;98363.69;4863057;28;109332;-78
2022/05/13 11:20:35;;;;;;;;;0.67;0.67;;;;;22.24;46.64;98358.19;4859312;28;102479;-78
2022/05/13 11:23:20;;;;;;;;;1.33;1.00;;;;;22.24;46.41;98344.41;4830371;28;102160;-78
2022/05/13 11:26:12;;;;;;;;;0.33;0.33;;;;;22.25;46.74;98335.06;4866279;28;102533;-78
2022/05/13 11:29:13;;;;;;;;;1.00;1.00;;;;;22.27;46.38;98328.44;4862325;28;109760;-78
2022/05/13 11:32:15;;;;;;;;;1.00;1.00;;;;;22.27;46.63;98329.28;4841819;28;102127;-78
2022/05/13 11:34:52;;;;;;;;;2.00;2.00;;;;;22.29;46.47;98318.00;4844287;28;102418;-83
2022/05/13 11:37:19;;;;;;;;;2.00;1.67;;;;;22.38;46.33;98321.78;4860801;28;104273;-84
2022/05/13 11:40:11;;;;;;;;;2.00;1.67;;;;;22.40;46.27;98331.41;4845309;28;104398;-81
2022/05/13 11:45:56;;;;;;;;;1.67;1.67;;;;;22.44;44.54;98323.38;4848356;28;102303;-89
2022/05/13 11:48:37;;;;;;;;;1.33;1.33;;;;;22.44;44.67;98315.13;4863209;28;102559;-88
2022/05/13 11:51:31;;;;;;;;;2.67;2.67;;;;;22.44;44.49;98310.44;4837232;28;108759;-88
2022/05/13 11:54:01;;;;;;;;;2.00;2.00;;;;;22.45;44.43;98303.00;4830656;28;103408;-88
2022/05/13 11:56:31;;;;;;;;;1.67;1.67;;;;;22.47;44.30;98300.81;4864576;28;101954;-88
2022/05/13 11:59:11;;;;;;;;;2.67;2.67;;;;;22.47;44.70;98298.84;4859868;28;102627;-88
2022/05/13 12:01:38;;;;;;;;;2.00;2.00;;;;;22.50;44.09;98289.19;4844482;28;105302;-88
2022/05/13 12:04:12;;;;;;;;;3.33;2.33;;;;;22.53;44.84;98280.34;4863064;28;102619;-85
2022/05/13 12:06:53;;;;;;;;;4.00;3.00;;;;;22.57;44.72;98275.91;4857142;28;104243;-82
2022/05/13 12:09:33;;;;;;;;;4.00;3.00;;;;;22.55;44.78;98267.94;4857689;28;102546;-83
2022/05/13 12:12:19;;;;;;;;;2.67;2.00;;;;;22.53;45.09;98253.63;4853557;28;109103;-83